createdAt,value
2018-11-04T00:02:11.144Z,18.33
2018-11-04T00:04:39.652Z,16.30
2018-11-04T00:07:08.208Z,16.27
2018-11-04T00:09:36.783Z,17.00
2018-11-04T00:12:05.501Z,16.97
2018-11-04T00:14:33.950Z,16.97
2018-11-04T00:17:02.508Z,22.60
2018-11-04T00:19:30.977Z,15.50
2018-11-04T00:21:59.478Z,14.53
2018-11-04T00:24:27.981Z,15.73
2018-11-04T00:26:56.503Z,15.40
2018-11-04T00:29:24.994Z,16.27
2018-11-04T00:31:53.535Z,16.13
2018-11-04T00:34:22.119Z,15.50
2018-11-04T00:36:50.634Z,15.47
2018-11-04T00:39:19.124Z,14.13
2018-11-04T00:41:47.628Z,15.67
2018-11-04T00:44:16.096Z,15.93
2018-11-04T00:46:44.636Z,14.00
2018-11-04T00:49:13.201Z,15.50
2018-11-04T00:51:41.680Z,13.80
2018-11-04T00:54:10.134Z,16.67
2018-11-04T00:56:39.206Z,16.83
2018-11-04T00:59:07.811Z,16.53
2018-11-04T01:01:36.418Z,17.77
2018-11-04T01:04:05.165Z,17.20
2018-11-04T01:06:33.777Z,16.90
2018-11-04T01:09:02.301Z,15.53
2018-11-04T01:11:30.860Z,15.77
2018-11-04T01:13:59.394Z,16.07
2018-11-04T01:16:28.008Z,16.23
2018-11-04T01:18:56.579Z,15.10
2018-11-04T01:21:25.098Z,13.27
2018-11-04T01:23:53.547Z,14.83
2018-11-04T01:26:22.071Z,15.83
2018-11-04T01:28:51.250Z,16.43
2018-11-04T01:31:19.713Z,14.27
2018-11-04T01:33:48.268Z,15.37
2018-11-04T01:36:16.883Z,16.27
2018-11-04T01:38:46.125Z,13.70
2018-11-04T01:41:14.633Z,13.43
2018-11-04T01:43:43.098Z,16.23
2018-11-04T01:46:11.637Z,19.63
2018-11-04T01:48:40.188Z,17.13
2018-11-04T01:51:09.460Z,14.70
2018-11-04T01:53:37.917Z,15.03
2018-11-04T01:56:06.368Z,15.77
2018-11-04T01:58:35.173Z,15.03
2018-11-04T02:01:03.657Z,15.47
2018-11-04T02:03:32.489Z,17.20
2018-11-04T02:06:00.918Z,18.23
2018-11-04T02:08:29.463Z,17.37
2018-11-04T02:10:58.473Z,13.97
2018-11-04T02:13:26.992Z,16.63
2018-11-04T02:15:55.579Z,16.77
2018-11-04T02:18:24.486Z,15.23
2018-11-04T02:20:52.924Z,16.33
2018-11-04T02:23:21.623Z,16.90
2018-11-04T02:25:50.057Z,17.27
2018-11-04T02:28:18.609Z,14.27
2018-11-04T02:30:47.269Z,19.07
2018-11-04T02:33:15.767Z,17.60
2018-11-04T02:35:44.538Z,18.70
2018-11-04T02:38:13.048Z,17.33
2018-11-04T02:40:41.511Z,18.37
2018-11-04T02:43:09.960Z,15.70
2018-11-04T02:45:38.412Z,19.07
2018-11-04T02:48:07.380Z,19.20
2018-11-04T02:50:35.894Z,23.30
2018-11-04T02:53:04.733Z,19.67
2018-11-04T02:55:33.204Z,27.23
2018-11-04T02:58:01.708Z,18.50
2018-11-04T03:00:30.205Z,16.67
2018-11-04T03:02:58.702Z,23.10
2018-11-04T03:05:27.215Z,26.53
2018-11-04T03:07:55.709Z,36.67
2018-11-04T03:10:24.259Z,27.33
2018-11-04T03:12:52.699Z,25.23
2018-11-04T03:15:21.292Z,31.47
2018-11-04T03:17:49.792Z,24.43
2018-11-04T03:20:18.326Z,20.23
2018-11-04T03:22:46.847Z,19.67
2018-11-04T03:25:15.305Z,22.27
2018-11-04T03:27:44.167Z,19.57
2018-11-04T03:30:12.642Z,19.97
2018-11-04T03:32:41.121Z,18.50
2018-11-04T03:35:10.268Z,18.70
2018-11-04T03:37:38.739Z,19.23
2018-11-04T03:40:09.146Z,20.77
2018-11-04T03:42:37.621Z,19.87
2018-11-04T03:45:06.829Z,20.43
2018-11-04T03:47:36.345Z,19.83
2018-11-04T03:50:06.007Z,18.30
2018-11-04T03:52:34.472Z,20.20
2018-11-04T03:55:02.981Z,19.57
2018-11-04T03:57:31.463Z,18.23
2018-11-04T03:59:59.938Z,17.63
2018-11-04T04:02:28.406Z,18.73
2018-11-04T04:04:56.859Z,19.03
2018-11-04T04:07:25.895Z,18.60
2018-11-04T04:09:54.364Z,20.67
2018-11-04T04:12:22.833Z,22.43
2018-11-04T04:14:51.400Z,24.83
2018-11-04T04:17:19.828Z,19.37
2018-11-04T04:19:48.944Z,22.10
2018-11-04T04:22:17.447Z,20.70
2018-11-04T04:24:46.028Z,20.87
2018-11-04T04:27:14.455Z,19.83
2018-11-04T04:29:42.992Z,19.97
2018-11-04T04:32:11.480Z,16.83
2018-11-04T04:34:40.023Z,20.07
2018-11-04T04:37:09.222Z,20.73
2018-11-04T04:39:37.711Z,19.93
2018-11-04T04:42:06.457Z,19.57
2018-11-04T04:44:35.561Z,22.13
2018-11-04T04:47:06.146Z,20.67
2018-11-04T04:49:34.773Z,23.77
2018-11-04T04:52:03.212Z,18.30
2018-11-04T04:54:31.708Z,19.13
2018-11-04T04:57:00.364Z,20.13
2018-11-04T04:59:29.737Z,18.70
2018-11-04T05:02:00.924Z,19.27
2018-11-04T05:04:29.720Z,19.37
2018-11-04T05:06:59.093Z,20.93
2018-11-04T05:09:28.127Z,22.30
2018-11-04T05:11:56.665Z,23.33
2018-11-04T05:14:25.249Z,22.30
2018-11-04T05:16:54.347Z,21.20
2018-11-04T05:19:22.795Z,22.90
2018-11-04T05:21:51.418Z,20.30
2018-11-04T05:24:19.897Z,19.53
2018-11-04T05:26:49.768Z,20.23
2018-11-04T05:29:18.264Z,19.70
2018-11-04T05:31:47.356Z,20.60
2018-11-04T05:34:16.301Z,22.83
2018-11-04T05:36:44.763Z,22.63
2018-11-04T05:39:13.282Z,20.97
2018-11-04T05:41:41.804Z,23.70
2018-11-04T05:44:10.797Z,18.50
2018-11-04T05:46:39.851Z,19.90
2018-11-04T05:49:08.563Z,24.93
2018-11-04T05:51:37.030Z,21.67
2018-11-04T05:54:05.964Z,23.30
2018-11-04T05:56:34.851Z,20.53
2018-11-04T05:59:03.349Z,22.10
2018-11-04T06:01:31.798Z,22.03
2018-11-04T06:04:00.260Z,23.53
2018-11-04T06:06:29.598Z,22.70
2018-11-04T06:08:58.180Z,22.03
2018-11-04T06:11:26.667Z,22.90
2018-11-04T06:13:55.701Z,20.73
2018-11-04T06:16:24.781Z,23.03
2018-11-04T06:18:53.307Z,23.57
2018-11-04T06:21:21.821Z,21.10
2018-11-04T06:23:50.864Z,23.30
2018-11-04T06:26:19.442Z,23.57
2018-11-04T06:28:47.985Z,22.60
2018-11-04T06:31:16.450Z,24.00
2018-11-04T06:33:44.998Z,22.57
2018-11-04T06:36:13.464Z,21.63
2018-11-04T06:38:41.979Z,23.20
2018-11-04T06:41:10.599Z,23.20
2018-11-04T06:43:39.659Z,21.23
2018-11-04T06:46:08.845Z,23.63
2018-11-04T06:48:37.478Z,23.87
2018-11-04T06:51:05.998Z,22.33
2018-11-04T06:53:34.411Z,23.47
2018-11-04T06:56:02.943Z,21.33
2018-11-04T06:58:31.534Z,24.00
2018-11-04T07:01:00.500Z,21.80
2018-11-04T07:03:29.643Z,24.03
2018-11-04T07:05:58.133Z,19.23
2018-11-04T07:08:27.001Z,23.47
2018-11-04T07:10:55.480Z,23.90
2018-11-04T07:13:23.949Z,24.27
2018-11-04T07:15:52.550Z,22.77
2018-11-04T07:18:21.061Z,23.97
2018-11-04T07:20:51.111Z,23.17
2018-11-04T07:23:19.603Z,24.20
2018-11-04T07:25:49.133Z,27.37
2018-11-04T07:28:17.666Z,24.90
2018-11-04T07:30:46.159Z,23.97
2018-11-04T07:33:14.630Z,26.67
2018-11-04T07:35:43.050Z,23.63
2018-11-04T07:38:11.531Z,22.80
2018-11-04T07:42:04.479Z,24.90
2018-11-04T07:44:32.935Z,24.73
2018-11-04T07:47:01.716Z,24.27
2018-11-04T07:49:31.127Z,23.17
2018-11-04T07:52:00.912Z,22.33
2018-11-04T07:54:30.204Z,24.87
2018-11-04T07:56:58.736Z,21.70
2018-11-04T07:59:27.439Z,24.33
2018-11-04T08:01:57.953Z,22.90
2018-11-04T08:04:26.533Z,28.00
2018-11-04T08:06:55.756Z,22.87
2018-11-04T08:09:24.224Z,22.57
2018-11-04T08:11:52.668Z,23.70
2018-11-04T08:14:21.411Z,22.60
2018-11-04T08:16:50.698Z,23.03
2018-11-04T08:19:19.211Z,22.27
2018-11-04T08:21:47.718Z,19.53
2018-11-04T08:24:16.230Z,24.63
2018-11-04T08:26:46.066Z,22.60
2018-11-04T08:29:15.127Z,21.43
2018-11-04T08:31:43.602Z,21.50
2018-11-04T08:34:12.153Z,21.77
2018-11-04T08:36:41.744Z,25.23
2018-11-04T08:39:11.448Z,21.37
2018-11-04T08:41:40.056Z,19.97
2018-11-04T08:44:08.699Z,23.27
2018-11-04T08:46:37.200Z,23.20
2018-11-04T08:49:05.948Z,19.50
2018-11-04T08:51:35.320Z,21.33
2018-11-04T08:54:04.897Z,24.17
2018-11-04T08:56:33.396Z,21.23
2018-11-04T08:59:02.904Z,22.27
2018-11-04T09:01:32.089Z,21.20
2018-11-04T09:04:00.816Z,22.23
2018-11-04T09:06:30.421Z,19.20
2018-11-04T09:08:59.976Z,24.10
2018-11-04T09:11:28.783Z,23.37
2018-11-04T09:13:57.268Z,23.93
2018-11-04T09:16:26.662Z,20.93
2018-11-04T09:18:55.219Z,22.53
2018-11-04T09:21:23.671Z,21.87
2018-11-04T09:23:53.109Z,19.63
2018-11-04T09:26:21.569Z,21.73
2018-11-04T09:28:50.781Z,22.20
2018-11-04T09:31:19.344Z,18.87
2018-11-04T09:33:48.973Z,20.20
2018-11-04T09:36:20.144Z,22.07
2018-11-04T09:38:53.362Z,24.27
2018-11-04T09:41:22.252Z,22.17
2018-11-04T09:43:52.024Z,22.27
2018-11-04T09:46:20.590Z,38.80
2018-11-04T09:48:50.081Z,23.97
2018-11-04T09:51:18.830Z,27.43
2018-11-04T09:53:48.000Z,24.50
2018-11-04T09:56:16.604Z,24.97
2018-11-04T09:58:45.163Z,25.47
2018-11-04T10:01:14.262Z,23.47
2018-11-04T10:03:43.512Z,25.77
2018-11-04T10:06:13.097Z,25.20
2018-11-04T10:08:41.586Z,23.90
2018-11-04T10:11:10.666Z,31.70
2018-11-04T10:13:40.215Z,27.60
2018-11-04T10:16:09.818Z,27.77
2018-11-04T10:18:38.244Z,24.50
2018-11-04T10:21:07.447Z,26.37
2018-11-04T10:23:35.566Z,25.93
2018-11-04T10:26:04.136Z,25.10
2018-11-04T10:28:33.256Z,25.97
2018-11-04T10:31:01.881Z,29.87
2018-11-04T10:33:30.469Z,26.07
2018-11-04T10:35:59.054Z,25.80
2018-11-04T10:38:29.244Z,30.17
2018-11-04T10:40:57.740Z,30.93
2018-11-04T10:43:26.278Z,27.80
2018-11-04T10:45:54.739Z,30.73
2018-11-04T10:48:23.625Z,29.40
2018-11-04T10:50:52.138Z,27.60
2018-11-04T10:53:20.680Z,28.97
2018-11-04T10:55:50.749Z,27.33
2018-11-04T10:58:19.155Z,29.87
2018-11-04T11:00:52.936Z,29.77
2018-11-04T11:03:21.408Z,26.13
2018-11-04T11:05:50.450Z,28.40
2018-11-04T11:08:19.144Z,27.37
2018-11-04T11:10:47.648Z,30.93
2018-11-04T11:13:16.672Z,28.67
2018-11-04T11:15:45.125Z,27.67
2018-11-04T11:18:13.617Z,26.93
2018-11-04T11:20:43.029Z,24.30
2018-11-04T11:23:12.289Z,25.77
2018-11-04T11:25:40.721Z,30.60
2018-11-04T11:28:10.011Z,38.53
2018-11-04T11:30:38.781Z,33.30
2018-11-04T11:33:07.300Z,35.17
2018-11-04T11:35:36.549Z,31.10
2018-11-04T11:38:05.797Z,31.10
2018-11-04T11:40:35.145Z,26.37
2018-11-04T11:43:03.648Z,25.17
2018-11-04T11:45:32.201Z,28.37
2018-11-04T11:48:00.816Z,28.87
2018-11-04T11:50:29.313Z,29.70
2018-11-04T11:52:57.871Z,26.70
2018-11-04T11:55:26.369Z,27.13
2018-11-04T11:57:55.393Z,27.17
2018-11-04T12:00:24.133Z,25.77
2018-11-04T12:02:53.372Z,26.33
2018-11-04T12:05:21.849Z,25.07
2018-11-04T12:07:50.417Z,28.63
2018-11-04T12:10:18.878Z,28.63
2018-11-04T12:12:48.027Z,28.33
2018-11-04T12:15:16.479Z,30.90
2018-11-04T12:17:45.338Z,27.67
2018-11-04T12:20:14.553Z,28.47
2018-11-04T12:22:44.598Z,28.70
2018-11-04T12:25:13.693Z,27.23
2018-11-04T12:27:42.417Z,26.50
2018-11-04T12:30:13.444Z,26.83
2018-11-04T12:32:41.934Z,28.67
2018-11-04T12:35:11.846Z,27.93
2018-11-04T12:37:40.331Z,29.10
2018-11-04T12:40:10.510Z,25.60
2018-11-04T12:42:39.084Z,27.60
2018-11-04T12:45:09.037Z,26.63
2018-11-04T12:47:37.613Z,29.57
2018-11-04T12:50:07.613Z,29.80
2018-11-04T12:52:36.280Z,24.37
2018-11-04T12:55:05.489Z,27.27
2018-11-04T12:57:34.881Z,28.80
2018-11-04T13:00:03.981Z,27.87
2018-11-04T13:02:32.440Z,32.47
2018-11-04T13:05:02.012Z,27.87
2018-11-04T13:07:30.663Z,31.57
2018-11-04T13:09:59.814Z,26.67
2018-11-04T13:12:30.406Z,26.00
2018-11-04T13:14:59.025Z,27.90
2018-11-04T13:17:28.515Z,28.43
2018-11-04T13:19:57.441Z,30.70
2018-11-04T13:22:27.722Z,36.07
2018-11-04T13:24:56.785Z,28.23
2018-11-04T13:27:25.999Z,27.00
2018-11-04T13:29:55.461Z,26.40
2018-11-04T13:32:24.977Z,27.80
2018-11-04T13:34:54.082Z,30.70
2018-11-04T13:37:23.364Z,29.23
2018-11-04T13:39:51.906Z,30.67
2018-11-04T13:42:20.706Z,31.13
2018-11-04T13:44:50.539Z,27.97
2018-11-04T13:47:19.518Z,35.17
2018-11-04T13:49:49.181Z,27.33
2018-11-04T13:52:18.814Z,34.73
2018-11-04T13:54:48.506Z,36.50
2018-11-04T13:57:17.110Z,30.37
2018-11-04T13:59:46.078Z,29.07
2018-11-04T14:02:15.046Z,30.77
2018-11-04T14:04:44.072Z,29.23
2018-11-04T14:07:13.380Z,25.73
2018-11-04T14:09:43.442Z,29.57
2018-11-04T14:12:12.734Z,29.03
2018-11-04T14:14:41.584Z,29.40
2018-11-04T14:17:10.992Z,29.03
2018-11-04T14:19:39.852Z,25.60
2018-11-04T14:22:08.772Z,39.07
2018-11-04T14:24:37.686Z,30.63
2018-11-04T14:27:06.594Z,30.57
2018-11-04T14:29:35.279Z,30.80
2018-11-04T14:32:04.007Z,30.60
2018-11-04T14:34:32.808Z,31.57
2018-11-04T14:37:01.468Z,31.20
2018-11-04T14:39:31.126Z,27.13
2018-11-04T14:41:59.834Z,28.13
2018-11-04T14:44:28.338Z,25.63
2018-11-04T14:46:56.839Z,28.80
2018-11-04T14:49:25.339Z,30.40
2018-11-04T14:51:53.851Z,29.80
2018-11-04T14:54:22.288Z,30.40
2018-11-04T14:56:50.765Z,24.80
2018-11-04T14:59:19.386Z,25.50
2018-11-04T15:01:48.069Z,26.63
2018-11-04T15:04:17.709Z,24.13
2018-11-04T15:09:45.682Z,23.37
2018-11-04T15:12:14.139Z,25.53
2018-11-04T15:14:42.702Z,23.03
2018-11-04T15:17:11.205Z,23.03
2018-11-04T15:19:39.720Z,23.27
2018-11-04T15:22:09.804Z,24.50
2018-11-04T15:24:38.449Z,23.17
2018-11-04T15:27:06.935Z,21.80
2018-11-04T15:29:35.931Z,21.90
2018-11-04T15:32:05.884Z,20.83
2018-11-04T15:34:34.802Z,23.40
2018-11-04T15:37:03.113Z,25.17
2018-11-04T15:39:31.603Z,23.97
2018-11-04T15:42:00.067Z,22.40
2018-11-04T15:44:28.647Z,24.37
2018-11-04T15:46:57.256Z,25.30
2018-11-04T15:49:25.675Z,27.63
2018-11-04T15:51:54.721Z,25.60
2018-11-04T15:54:23.907Z,28.10
2018-11-04T15:56:52.429Z,29.03
2018-11-04T15:59:20.991Z,28.90
2018-11-04T16:01:50.262Z,28.50
2018-11-04T16:04:19.685Z,30.03
2018-11-04T16:06:50.113Z,29.07
2018-11-04T16:09:18.619Z,31.60
2018-11-04T16:11:47.428Z,31.33
2018-11-04T16:14:15.959Z,32.10
2018-11-04T16:16:46.593Z,30.33
2018-11-04T16:19:15.160Z,28.70
2018-11-04T16:21:43.700Z,29.90
2018-11-04T16:24:12.228Z,29.37
2018-11-04T16:26:40.703Z,35.63
2018-11-04T16:29:09.339Z,35.47
2018-11-04T16:31:44.567Z,39.27
2018-11-04T16:34:13.126Z,38.93
2018-11-04T16:36:41.874Z,37.00
2018-11-04T16:39:10.400Z,32.00
2018-11-04T16:41:38.992Z,43.50
2018-11-04T16:44:08.106Z,52.43
2018-11-04T16:46:37.935Z,37.63
2018-11-04T16:49:07.180Z,42.13
2018-11-04T16:51:35.868Z,40.20
2018-11-04T16:54:04.407Z,39.60
2018-11-04T16:56:32.873Z,45.40
2018-11-04T16:59:01.358Z,44.57
2018-11-04T17:01:29.926Z,32.00
2018-11-04T17:03:59.003Z,32.33
2018-11-04T17:06:28.094Z,32.50
2018-11-04T17:08:57.023Z,34.27
2018-11-04T17:11:26.775Z,36.53
2018-11-04T17:13:55.208Z,32.43
2018-11-04T17:16:23.751Z,35.77
2018-11-04T17:18:52.220Z,33.30
2018-11-04T17:21:21.554Z,35.30
2018-11-04T17:23:50.128Z,39.87
2018-11-04T17:26:18.583Z,32.33
2018-11-04T17:28:47.973Z,31.50
2018-11-04T17:31:16.640Z,33.90
2018-11-04T17:33:45.568Z,43.60
2018-11-04T17:36:14.624Z,36.33
2018-11-04T17:38:43.173Z,34.47
2018-11-04T17:41:11.665Z,36.23
2018-11-04T17:43:40.225Z,36.37
2018-11-04T17:46:09.542Z,31.30
2018-11-04T17:48:38.052Z,32.37
2018-11-04T17:51:06.513Z,33.00
2018-11-04T17:53:35.132Z,33.83
2018-11-04T17:56:03.632Z,32.27
2018-11-04T17:58:32.080Z,36.13
2018-11-04T18:01:00.524Z,35.47
2018-11-04T18:03:29.427Z,37.13
2018-11-04T18:06:00.817Z,34.43
2018-11-04T18:08:29.637Z,35.87
2018-11-04T18:10:58.202Z,31.63
2018-11-04T18:13:26.718Z,32.40
2018-11-04T18:15:55.256Z,35.67
2018-11-04T18:18:23.789Z,31.67
2018-11-04T18:20:52.220Z,29.37
2018-11-04T18:23:20.725Z,30.30
2018-11-04T18:25:50.036Z,30.67
2018-11-04T18:28:18.508Z,28.53
2018-11-04T18:30:48.631Z,31.23
2018-11-04T18:33:17.251Z,30.10
2018-11-04T18:35:45.719Z,28.47
2018-11-04T18:38:14.216Z,32.00
2018-11-04T18:40:42.711Z,31.47
2018-11-04T18:43:11.255Z,29.17
2018-11-04T18:45:39.672Z,31.83
2018-11-04T18:48:08.184Z,31.87
2018-11-04T18:50:36.676Z,28.70
2018-11-04T18:53:05.423Z,28.53
2018-11-04T18:55:33.873Z,29.57
2018-11-04T18:58:02.350Z,29.13
2018-11-04T19:00:30.798Z,28.77
2018-11-04T19:02:59.371Z,29.20
2018-11-04T19:05:29.589Z,26.27
2018-11-04T19:07:58.116Z,27.57
2018-11-04T19:10:26.944Z,27.27
2018-11-04T19:12:55.665Z,28.10
2018-11-04T19:15:24.084Z,28.43
2018-11-04T19:17:52.565Z,27.87
2018-11-04T19:20:20.991Z,26.83
2018-11-04T19:22:49.584Z,28.70
2018-11-04T19:25:19.097Z,29.30
2018-11-04T19:27:47.599Z,28.87
2018-11-04T19:30:17.296Z,27.60
2018-11-04T19:32:46.210Z,28.10
2018-11-04T19:35:15.391Z,26.90
2018-11-04T19:37:43.909Z,28.80
2018-11-04T19:40:14.103Z,30.67
2018-11-04T19:42:42.940Z,28.50
2018-11-04T19:45:11.290Z,26.03
2018-11-04T19:47:40.184Z,28.07
2018-11-04T19:50:12.724Z,26.37
2018-11-04T19:52:42.116Z,26.87
2018-11-04T19:55:11.360Z,27.00
2018-11-04T19:57:39.871Z,27.73
2018-11-04T20:00:09.968Z,26.47
2018-11-04T20:02:38.979Z,29.50
2018-11-04T20:05:09.020Z,27.37
2018-11-04T20:07:38.223Z,28.10
2018-11-04T20:10:09.265Z,23.53
2018-11-04T20:12:42.973Z,26.63
2018-11-04T20:15:12.822Z,28.00
2018-11-04T20:17:41.275Z,28.07
2018-11-04T20:20:15.892Z,27.60
2018-11-04T20:22:44.352Z,25.80
2018-11-04T20:25:18.300Z,26.07
2018-11-04T20:27:46.902Z,28.13
2018-11-04T20:30:15.735Z,28.97
2018-11-04T20:32:49.296Z,27.70
2018-11-04T20:35:18.882Z,26.33
2018-11-04T20:37:47.537Z,27.57
2018-11-04T20:40:21.427Z,28.43
2018-11-04T20:42:49.901Z,25.67
2018-11-04T20:45:20.121Z,27.07
2018-11-04T20:47:54.064Z,25.37
2018-11-04T20:50:27.804Z,27.93
2018-11-04T20:52:56.329Z,24.97
2018-11-04T20:55:29.782Z,29.30
2018-11-04T20:57:59.162Z,26.37
2018-11-04T21:00:28.016Z,27.63
2018-11-04T21:02:56.724Z,24.13
2018-11-04T21:05:26.219Z,24.90
2018-11-04T21:07:54.916Z,23.37
2018-11-04T21:10:24.463Z,29.20
2018-11-04T21:12:53.652Z,27.37
2018-11-04T21:15:22.160Z,27.63
2018-11-04T21:17:50.707Z,27.57
2018-11-04T21:20:19.189Z,27.83
2018-11-04T21:22:47.872Z,28.20
2018-11-04T21:25:16.786Z,26.50
2018-11-04T21:27:45.308Z,26.40
2018-11-04T21:30:14.062Z,27.43
2018-11-04T21:32:42.934Z,27.77
2018-11-04T21:35:11.959Z,27.03
2018-11-04T21:37:40.509Z,29.27
2018-11-04T21:40:09.863Z,28.17
2018-11-04T21:42:39.445Z,28.00
2018-11-04T21:45:10.167Z,27.93
2018-11-04T21:47:38.604Z,25.67
2018-11-04T21:50:08.049Z,25.57
2018-11-04T21:52:36.519Z,25.80
2018-11-04T21:55:05.939Z,24.37
2018-11-04T21:57:34.415Z,29.17
2018-11-04T22:00:03.904Z,25.17
2018-11-04T22:02:32.523Z,25.03
2018-11-04T22:05:01.993Z,27.43
2018-11-04T22:07:30.536Z,25.93
2018-11-04T22:10:00.645Z,28.00
2018-11-04T22:12:29.683Z,26.67
2018-11-04T22:14:58.760Z,27.43
2018-11-04T22:17:28.437Z,26.57
2018-11-04T22:19:57.021Z,27.73
2018-11-04T22:22:25.481Z,28.97
2018-11-04T22:24:54.159Z,27.80
2018-11-04T22:27:22.830Z,26.40
2018-11-04T22:29:51.299Z,27.30
2018-11-04T22:32:19.768Z,27.40
2018-11-04T22:34:48.312Z,25.33
2018-11-04T22:37:16.724Z,30.40
2018-11-04T22:39:45.860Z,25.30
2018-11-04T22:42:14.396Z,26.57
2018-11-04T22:44:42.827Z,27.27
2018-11-04T22:47:11.289Z,27.37
2018-11-04T22:49:39.879Z,28.10
2018-11-04T22:52:10.041Z,26.70
2018-11-04T22:54:40.281Z,28.60
2018-11-04T22:57:08.971Z,26.83
2018-11-04T22:59:37.491Z,27.87
2018-11-04T23:02:05.958Z,28.60
2018-11-04T23:04:39.818Z,30.07
2018-11-04T23:07:08.598Z,27.47
2018-11-04T23:09:37.059Z,28.00
2018-11-04T23:12:05.912Z,30.03
2018-11-04T23:14:34.404Z,32.27
2018-11-04T23:17:03.811Z,30.63
2018-11-04T23:19:32.679Z,27.93
2018-11-04T23:22:01.188Z,27.77
2018-11-04T23:24:30.588Z,28.00
2018-11-04T23:26:59.627Z,28.90
2018-11-04T23:29:28.253Z,28.33
2018-11-04T23:31:56.736Z,28.67
2018-11-04T23:34:25.327Z,28.53
2018-11-04T23:36:54.029Z,30.60
2018-11-04T23:39:22.475Z,29.67
2018-11-04T23:41:50.973Z,28.23
2018-11-04T23:44:19.438Z,30.53
2018-11-04T23:46:47.970Z,29.83
2018-11-04T23:49:16.428Z,26.93
2018-11-04T23:51:44.981Z,28.83
2018-11-04T23:54:13.436Z,31.30
2018-11-04T23:56:41.925Z,26.07
2018-11-04T23:59:11.077Z,29.23
